Time;durP1;ratioP1;P1;durP2;ratioP2;P2;SDS_P1;SDS_P2;PMS_P1;PMS_P2;Temp;Humidity;BMP_temperature;BMP_pressure;BME280_temperature;BME280_humidity;BME280_pressure;Samples;Min_cycle;Max_cycle;Signal;HPM_P1;HPM_P2
2023/05/20 00:00:10;;;;;;;6.27;4.80;;;;;;;12.19;86.79;93723.94;524131;28;840;-63
2023/05/20 00:00:26;;;;;;;5.88;4.28;;;;;;;12.19;86.62;93723.94;523823;28;1146;-62
2023/05/20 00:00:41;;;;;;;8.30;4.60;;;;;;;12.21;86.49;93728.94;521235;28;2351;-62
2023/05/20 00:00:56;;;;;;;7.63;4.70;;;;;;;12.23;86.43;93720.81;517969;28;1561;-62
2023/05/20 00:01:12;;;;;;;6.63;4.32;;;;;;;12.27;86.40;93723.94;519736;28;1559;-62
2023/05/20 00:01:27;;;;;;;7.67;4.30;;;;;;;12.27;86.24;93723.94;519921;28;1260;-62
2023/05/20 00:01:43;;;;;;;7.43;4.37;;;;;;;12.24;86.14;93721.53;520056;28;860;-60
2023/05/20 00:01:58;;;;;;;9.55;4.18;;;;;;;12.22;85.99;93724.13;519968;28;1153;-61
2023/05/20 00:02:14;;;;;;;10.17;4.63;;;;;;;12.19;86.11;93726.72;515954;28;1777;-60
2023/05/20 00:02:30;;;;;;;7.90;4.75;;;;;;;11.97;86.47;93723.94;517981;28;1424;-61
2023/05/20 00:02:45;;;;;;;7.80;4.30;;;;;;;11.72;87.40;93717.41;518366;28;1525;-60
2023/05/20 00:03:01;;;;;;;8.00;4.17;;;;;;;11.55;88.34;93717.91;521948;28;947;-60
2023/05/20 00:03:16;;;;;;;7.75;4.32;;;;;;;11.36;89.34;93714.69;522035;28;908;-60
2023/05/20 00:03:31;;;;;;;5.60;4.63;;;;;;;11.21;90.32;93711.88;521148;28;1173;-60
2023/05/20 00:03:47;;;;;;;6.07;5.03;;;;;;;10.98;91.30;93697.94;521874;28;888;-60
2023/05/20 00:04:02;;;;;;;5.22;4.68;;;;;;;11.13;92.08;93730.47;521758;28;870;-60
2023/05/20 00:04:18;;;;;;;5.83;4.73;;;;;;;11.15;92.45;93719.59;522224;28;989;-61
2023/05/20 00:04:33;;;;;;;6.78;5.20;;;;;;;11.25;92.73;93726.09;522212;28;847;-61
2023/05/20 00:04:49;;;;;;;7.20;4.87;;;;;;;11.29;92.84;93726.47;523675;28;1214;-60
2023/05/20 00:05:05;;;;;;;8.57;4.55;;;;;;;11.28;92.67;93725.00;523633;28;1145;-61
2023/05/20 00:05:20;;;;;;;7.93;4.53;;;;;;;11.21;92.60;93722.94;525315;28;2340;-60
2023/05/20 00:05:35;;;;;;;7.87;5.33;;;;;;;11.21;92.74;93723.69;526294;28;882;-60
2023/05/20 00:05:51;;;;;;;7.17;5.10;;;;;;;11.21;92.59;93726.44;524536;28;1728;-60
2023/05/20 00:06:06;;;;;;;5.97;4.40;;;;;;;11.12;92.85;93717.91;523507;28;848;-60
2023/05/20 00:06:22;;;;;;;6.33;4.47;;;;;;;11.04;92.89;93706.09;524315;28;828;-60
2023/05/20 00:06:37;;;;;;;6.82;4.80;;;;;;;11.14;92.96;93727.13;524169;28;1217;-60
2023/05/20 00:06:53;;;;;;;8.43;4.93;;;;;;;11.15;92.92;93725.84;524222;28;872;-61
2023/05/20 00:07:09;;;;;;;9.68;4.88;;;;;;;11.16;93.07;93726.59;524351;28;905;-60
2023/05/20 00:07:24;;;;;;;7.32;4.95;;;;;;;11.13;93.16;93733.94;524238;28;804;-61
2023/05/20 00:07:40;;;;;;;7.53;5.13;;;;;;;10.93;93.29;93709.16;524365;28;1560;-61
2023/05/20 00:07:55;;;;;;;7.47;4.75;;;;;;;11.11;93.45;93742.03;523589;28;1000;-61
2023/05/20 00:08:11;;;;;;;5.77;4.17;;;;;;;11.10;93.39;93737.06;524173;28;1393;-61
2023/05/20 00:08:26;;;;;;;5.55;4.50;;;;;;;11.07;93.42;93735.38;524338;28;769;-61
2023/05/20 00:08:42;;;;;;;5.80;4.80;;;;;;;11.06;93.63;93733.91;524288;28;1097;-62
2023/05/20 00:08:58;;;;;;;5.80;4.53;;;;;;;11.08;93.57;93742.41;523409;28;888;-62
2023/05/20 00:09:16;;;;;;;5.55;4.43;;;;;;;11.08;93.04;93734.09;523416;28;831;-61
2023/05/20 00:09:31;;;;;;;5.05;4.47;;;;;;;11.07;93.39;93740.91;523924;28;1016;-61
2023/05/20 00:09:46;;;;;;;5.57;4.45;;;;;;;11.07;93.53;93746.44;524287;28;864;-62
2023/05/20 00:10:02;;;;;;;6.13;4.17;;;;;;;11.09;93.32;93741.09;523705;28;876;-62
2023/05/20 00:10:17;;;;;;;6.37;3.87;;;;;;;11.05;93.32;93740.72;524223;28;873;-61
2023/05/20 00:10:32;;;;;;;6.75;3.78;;;;;;;10.98;93.39;93736.63;523053;28;860;-61
2023/05/20 00:10:48;;;;;;;5.43;3.87;;;;;;;11.04;93.54;93739.25;523600;28;788;-61
2023/05/20 00:11:03;;;;;;;7.28;4.28;;;;;;;11.05;93.40;93730.41;523441;28;1012;-61
2023/05/20 00:11:18;;;;;;;7.23;4.27;;;;;;;11.02;93.58;93734.25;523488;28;1910;-61
2023/05/20 00:11:34;;;;;;;5.93;4.20;;;;;;;11.04;93.61;93730.97;522067;28;1771;-61
2023/05/20 00:11:49;;;;;;;5.85;3.75;;;;;;;11.02;93.64;93728.00;522253;28;954;-61
2023/05/20 00:12:05;;;;;;;5.00;3.60;;;;;;;11.03;93.78;93729.47;523386;28;781;-61
2023/05/20 00:12:20;;;;;;;5.65;4.05;;;;;;;11.02;93.73;93736.28;524215;28;804;-61
2023/05/20 00:12:37;;;;;;;6.97;4.33;;;;;;;11.01;93.69;93734.81;524184;28;1110;-61
2023/05/20 00:12:53;;;;;;;9.48;4.60;;;;;;;11.04;93.83;93726.19;523747;28;1425;-61
2023/05/20 00:13:08;;;;;;;8.97;4.30;;;;;;;10.98;93.83;93722.81;522461;28;1481;-61
2023/05/20 00:13:23;;;;;;;6.68;4.18;;;;;;;11.02;93.58;93730.78;524095;28;1032;-61
2023/05/20 00:13:39;;;;;;;6.03;4.10;;;;;;;10.99;93.84;93732.59;523231;28;1553;-61
2023/05/20 00:13:54;;;;;;;6.83;4.47;;;;;;;11.00;93.89;93728.53;524085;28;1689;-61
2023/05/20 00:14:10;;;;;;;7.10;4.70;;;;;;;10.99;94.04;93731.84;524132;28;911;-61
2023/05/20 00:14:25;;;;;;;6.37;4.03;;;;;;;11.00;94.09;93722.28;524252;28;808;-61
2023/05/20 00:14:40;;;;;;;8.70;4.13;;;;;;;11.07;94.16;93727.84;524264;28;910;-61
2023/05/20 00:14:56;;;;;;;8.87;4.00;;;;;;;11.11;94.08;93724.75;524174;28;943;-61
2023/05/20 00:15:11;;;;;;;7.80;3.83;;;;;;;11.14;93.92;93723.63;524210;28;845;-61
2023/05/20 00:15:27;;;;;;;6.40;3.57;;;;;;;11.19;93.91;93723.50;524113;28;1102;-61
2023/05/20 00:15:42;;;;;;;6.35;4.43;;;;;;;11.24;93.69;93730.88;524210;28;792;-61
2023/05/20 00:15:58;;;;;;;7.10;5.13;;;;;;;11.25;93.49;93726.09;522471;28;862;-62
2023/05/20 00:16:14;;;;;;;5.70;4.07;;;;;;;11.29;93.22;93724.44;522038;28;993;-61
2023/05/20 00:16:29;;;;;;;4.38;3.50;;;;;;;11.32;93.23;93726.13;524376;28;893;-62
2023/05/20 00:16:44;;;;;;;5.10;3.97;;;;;;;11.32;93.02;93728.88;524214;28;1149;-61
2023/05/20 00:17:00;;;;;;;5.63;4.18;;;;;;;11.34;93.00;93726.31;523241;28;1543;-61
2023/05/20 00:17:15;;;;;;;5.40;4.10;;;;;;;11.34;92.82;93734.59;524209;28;852;-61
2023/05/20 00:17:31;;;;;;;5.60;4.13;;;;;;;11.34;92.66;93720.78;524308;28;879;-61
2023/05/20 00:17:46;;;;;;;4.97;3.95;;;;;;;11.34;92.66;93729.09;524117;28;1282;-62
2023/05/20 00:18:02;;;;;;;6.23;4.27;;;;;;;11.21;92.45;93709.88;523657;28;1246;-62
2023/05/20 00:18:18;;;;;;;8.98;5.43;;;;;;;11.37;92.39;93727.97;522212;28;876;-62
2023/05/20 00:18:33;;;;;;;9.43;6.17;;;;;;;11.33;92.23;93726.84;522076;28;1162;-61
2023/05/20 00:18:48;;;;;;;8.97;6.00;;;;;;;11.39;91.99;93732.97;520053;28;864;-61
2023/05/20 00:19:04;;;;;;;9.13;6.03;;;;;;;11.39;91.93;93722.63;520486;28;1206;-61
2023/05/20 00:19:19;;;;;;;9.33;5.87;;;;;;;11.40;91.64;93729.66;520060;28;852;-61
2023/05/20 00:19:35;;;;;;;8.85;5.97;;;;;;;11.40;91.54;93723.38;520001;28;825;-62
2023/05/20 00:19:50;;;;;;;9.33;6.30;;;;;;;11.42;91.35;93727.06;519945;28;836;-62
2023/05/20 00:20:07;;;;;;;9.17;5.83;;;;;;;11.46;91.34;93726.72;520103;28;1082;-61
2023/05/20 00:20:22;;;;;;;9.63;6.05;;;;;;;11.28;91.04;93708.41;520005;28;863;-61
2023/05/20 00:20:38;;;;;;;12.77;6.93;;;;;;;11.41;90.86;93725.59;520472;28;1053;-61
2023/05/20 00:20:53;;;;;;;13.77;7.27;;;;;;;11.24;90.68;93710.78;522117;28;888;-61
2023/05/20 00:21:09;;;;;;;11.68;7.43;;;;;;;11.19;90.75;93722.75;523975;28;815;-61
2023/05/20 00:21:24;;;;;;;11.13;7.30;;;;;;;11.20;90.99;93724.22;524058;28;1205;-61
2023/05/20 00:21:40;;;;;;;10.50;6.72;;;;;;;11.24;91.02;93724.63;524305;28;841;-61
2023/05/20 00:21:56;;;;;;;12.27;6.90;;;;;;;11.26;91.21;93733.09;524250;28;863;-61
2023/05/20 00:22:12;;;;;;;11.65;7.00;;;;;;;11.25;91.22;93723.31;523958;28;860;-61
2023/05/20 00:22:27;;;;;;;10.90;7.30;;;;;;;11.26;91.20;93727.56;522055;28;1044;-61
2023/05/20 00:22:42;;;;;;;11.27;7.60;;;;;;;11.31;91.24;93729.41;522098;28;934;-61
2023/05/20 00:22:58;;;;;;;14.68;7.43;;;;;;;11.36;91.12;93732.03;522043;28;1216;-61
2023/05/20 00:23:13;;;;;;;14.53;7.07;;;;;;;11.37;91.12;93727.22;519927;28;965;-61
2023/05/20 00:23:29;;;;;;;9.30;6.50;;;;;;;11.38;90.90;93725.94;520092;28;793;-61
2023/05/20 00:23:44;;;;;;;9.02;6.55;;;;;;;11.38;90.77;93721.16;519983;28;837;-62
2023/05/20 00:24:00;;;;;;;9.83;6.60;;;;;;;11.40;90.73;93720.59;520465;28;785;-61
2023/05/20 00:24:15;;;;;;;9.55;6.03;;;;;;;11.42;90.66;93729.09;522211;28;919;-61
2023/05/20 00:24:31;;;;;;;11.32;6.10;;;;;;;11.44;90.56;93726.53;523941;28;1814;-61
2023/05/20 00:24:46;;;;;;;11.17;6.07;;;;;;;11.49;90.38;93719.34;524312;28;844;-61
2023/05/20 00:25:02;;;;;;;10.60;6.07;;;;;;;11.52;90.21;93726.56;523458;28;1115;-61
2023/05/20 00:25:17;;;;;;;13.07;6.57;;;;;;;11.39;90.07;93697.03;524242;28;1174;-62
2023/05/20 00:25:32;;;;;;;10.73;5.83;;;;;;;11.48;90.10;93712.34;524211;28;900;-61
2023/05/20 00:25:48;;;;;;;8.45;5.20;;;;;;;11.57;89.81;93726.38;524285;28;1668;-61
2023/05/20 00:26:04;;;;;;;9.43;5.47;;;;;;;11.56;89.69;93721.41;524114;28;1090;-61
2023/05/20 00:26:20;;;;;;;8.68;5.30;;;;;;;11.56;89.54;93724.16;524184;28;891;-61
2023/05/20 00:26:35;;;;;;;8.15;5.45;;;;;;;11.56;89.59;93727.69;523037;28;816;-61
2023/05/20 00:26:50;;;;;;;8.63;5.40;;;;;;;11.57;89.17;93729.16;522236;28;824;-61
2023/05/20 00:27:06;;;;;;;10.60;5.80;;;;;;;11.52;89.16;93718.25;522414;28;1388;-61
2023/05/20 00:27:21;;;;;;;10.53;6.23;;;;;;;11.44;88.89;93716.22;524112;28;1398;-61
2023/05/20 00:27:37;;;;;;;8.57;5.87;;;;;;;11.21;88.93;93692.53;524910;28;1414;-61
2023/05/20 00:27:52;;;;;;;7.40;5.60;;;;;;;11.36;89.10;93714.69;522023;28;1038;-61
2023/05/20 00:28:07;;;;;;;9.20;5.70;;;;;;;11.41;89.24;93716.56;521962;28;796;-62
2023/05/20 00:28:23;;;;;;;10.17;5.70;;;;;;;11.41;89.26;93714.53;521982;28;863;-61
2023/05/20 00:28:38;;;;;;;8.50;5.75;;;;;;;11.44;89.12;93712.69;522105;28;837;-61
2023/05/20 00:28:53;;;;;;;8.17;5.70;;;;;;;11.46;89.23;93715.66;522018;28;831;-61
2023/05/20 00:29:09;;;;;;;8.17;5.70;;;;;;;11.48;89.14;93715.13;521945;28;1196;-62
2023/05/20 00:29:24;;;;;;;8.77;5.63;;;;;;;11.51;89.05;93714.00;521908;28;907;-62
2023/05/20 00:29:40;;;;;;;8.90;5.37;;;;;;;11.52;89.06;93709.97;522413;28;765;-61
2023/05/20 00:29:55;;;;;;;8.80;5.72;;;;;;;11.54;88.84;93713.66;524210;28;863;-61
2023/05/20 00:30:11;;;;;;;8.77;5.73;;;;;;;11.55;88.82;93708.84;524162;28;820;-61
2023/05/20 00:30:26;;;;;;;7.57;5.32;;;;;;;11.51;88.77;93703.69;524097;28;1165;-61
2023/05/20 00:30:42;;;;;;;8.50;5.73;;;;;;;11.46;88.54;93706.63;523498;28;1028;-61
2023/05/20 00:30:57;;;;;;;9.88;5.90;;;;;;;11.36;88.70;93714.69;523607;28;1292;-61
2023/05/20 00:31:13;;;;;;;9.73;5.80;;;;;;;11.24;88.99;93714.28;520513;28;839;-61
2023/05/20 00:31:28;;;;;;;8.75;6.03;;;;;;;11.19;89.49;93711.69;519966;28;1991;-61
2023/05/20 00:31:43;;;;;;;9.77;7.23;;;;;;;11.19;89.67;93717.22;519905;28;984;-61
2023/05/20 00:31:59;;;;;;;9.17;6.77;;;;;;;11.20;89.78;93713.16;520430;28;1173;-61
2023/05/20 00:32:14;;;;;;;8.35;5.30;;;;;;;11.22;89.92;93716.84;521947;28;836;-61
2023/05/20 00:32:30;;;;;;;8.87;5.17;;;;;;;11.22;89.81;93710.56;522126;28;896;-61
2023/05/20 00:32:45;;;;;;;9.87;5.93;;;;;;;11.24;89.99;93699.75;522270;28;954;-61
2023/05/20 00:33:00;;;;;;;10.55;6.50;;;;;;;11.27;89.85;93709.69;524141;28;1106;-61
2023/05/20 00:33:16;;;;;;;9.67;5.90;;;;;;;11.29;89.67;93698.81;523263;28;1601;-61
2023/05/20 00:33:31;;;;;;;8.00;5.10;;;;;;;11.34;89.58;93706.97;522382;28;977;-61
2023/05/20 00:33:46;;;;;;;6.68;5.03;;;;;;;11.37;89.59;93705.84;522208;28;1677;-61
2023/05/20 00:34:02;;;;;;;7.57;5.53;;;;;;;11.35;89.49;93705.66;524228;28;896;-61
2023/05/20 00:34:17;;;;;;;7.30;5.55;;;;;;;11.33;89.16;93707.50;524312;28;964;-61
2023/05/20 00:34:33;;;;;;;8.43;5.93;;;;;;;11.32;89.37;93706.03;524250;28;823;-60
2023/05/20 00:34:56;;;;;;;9.77;5.97;;;;;;;11.31;89.41;93705.28;524306;28;802;-61
2023/05/20 00:35:11;;;;;;;9.10;5.15;;;;;;;11.24;89.40;93714.28;523943;28;875;-60
2023/05/20 00:35:27;;;;;;;7.07;5.07;;;;;;;11.03;89.66;93702.59;522949;28;1576;-61
2023/05/20 00:35:42;;;;;;;7.07;5.05;;;;;;;10.98;90.11;93708.28;522148;28;1000;-61
2023/05/20 00:35:58;;;;;;;7.10;5.20;;;;;;;10.84;90.73;93709.66;522500;28;841;-61
2023/05/20 00:36:13;;;;;;;7.97;5.40;;;;;;;10.78;91.26;93706.31;522027;28;936;-62
2023/05/20 00:36:30;;;;;;;10.05;5.53;;;;;;;10.76;91.60;93714.41;522547;28;1210;-60
2023/05/20 00:36:45;;;;;;;8.80;5.63;;;;;;;10.71;91.93;93720.81;524296;28;917;-61
2023/05/20 00:37:00;;;;;;;8.07;5.47;;;;;;;10.68;92.16;93712.34;523820;28;1409;-60
2023/05/20 00:37:16;;;;;;;7.77;5.27;;;;;;;10.71;92.28;93713.28;522114;28;903;-61
2023/05/20 00:37:31;;;;;;;7.00;5.40;;;;;;;10.76;92.29;93719.94;524277;28;845;-61
2023/05/20 00:37:46;;;;;;;8.82;5.97;;;;;;;10.79;92.31;93719.59;524266;28;868;-61
2023/05/20 00:38:02;;;;;;;9.70;6.60;;;;;;;10.86;92.19;93707.09;524087;28;1118;-61
2023/05/20 00:38:17;;;;;;;7.20;5.90;;;;;;;10.89;91.85;93712.28;524156;28;876;-61
2023/05/20 00:38:33;;;;;;;6.53;4.90;;;;;;;10.81;91.68;93680.38;524240;28;876;-61
2023/05/20 00:38:48;;;;;;;7.80;5.47;;;;;;;10.99;91.47;93706.97;524382;28;765;-61
2023/05/20 00:39:04;;;;;;;9.55;5.60;;;;;;;11.06;90.91;93709.78;523293;28;1749;-61
2023/05/20 00:39:19;;;;;;;9.43;5.07;;;;;;;11.08;90.72;93710.00;523449;28;1682;-61
2023/05/20 00:39:35;;;;;;;7.78;5.00;;;;;;;11.09;90.47;93711.44;522745;28;1417;-60
2023/05/20 00:39:50;;;;;;;8.57;4.87;;;;;;;11.09;90.12;93707.94;522178;28;772;-61
2023/05/20 00:40:06;;;;;;;8.73;5.00;;;;;;;10.89;90.13;93681.91;523527;28;974;-61
2023/05/20 00:40:23;;;;;;;7.32;5.05;;;;;;;11.01;90.07;93712.69;524245;28;878;-61
2023/05/20 00:40:38;;;;;;;6.25;4.65;;;;;;;10.98;90.25;93708.28;524353;28;1158;-61
2023/05/20 00:40:54;;;;;;;6.87;4.67;;;;;;;10.98;90.22;93708.28;524159;28;935;-61
2023/05/20 00:41:09;;;;;;;13.83;5.63;;;;;;;11.00;90.32;93705.72;522644;28;1015;-61
2023/05/20 00:41:25;;;;;;;14.43;6.05;;;;;;;11.01;90.21;93702.41;522007;28;879;-61
2023/05/20 00:41:40;;;;;;;6.73;5.23;;;;;;;11.07;90.17;93702.97;523255;28;769;-61
2023/05/20 00:41:59;;;;;;;6.60;4.67;;;;;;;11.10;90.04;93709.44;522611;28;789;-60
2023/05/20 00:42:21;;;;;;;5.72;4.07;;;;;;;11.14;89.52;93704.28;522010;28;888;-61
2023/05/20 00:42:37;;;;;;;7.25;4.78;;;;;;;11.19;89.39;93703.41;523468;28;1577;-61
2023/05/20 00:42:52;;;;;;;8.03;4.80;;;;;;;11.19;89.16;93706.91;523110;28;1675;-61
2023/05/20 00:43:08;;;;;;;7.23;5.03;;;;;;;11.22;88.83;93707.81;523142;28;907;-61
2023/05/20 00:43:25;;;;;;;6.68;4.78;;;;;;;11.25;88.81;93715.03;522031;28;1006;-61
2023/05/20 00:43:40;;;;;;;6.28;4.25;;;;;;;11.26;88.42;93706.19;522175;28;979;-61
2023/05/20 00:43:56;;;;;;;6.95;4.15;;;;;;;11.29;88.36;93707.13;522932;28;834;-62
2023/05/20 00:44:11;;;;;;;7.23;4.20;;;;;;;11.28;88.20;93702.88;523385;28;1336;-61
2023/05/20 00:44:26;;;;;;;6.63;4.90;;;;;;;11.31;87.96;93713.56;524302;28;817;-61
2023/05/20 00:44:42;;;;;;;7.68;5.70;;;;;;;11.33;88.01;93704.72;524293;28;915;-61
2023/05/20 00:44:59;;;;;;;8.67;5.20;;;;;;;11.34;87.81;93709.72;523931;28;848;-61
2023/05/20 00:45:14;;;;;;;8.13;4.53;;;;;;;11.31;87.62;93707.31;522035;28;872;-61
2023/05/20 00:45:30;;;;;;;5.50;3.72;;;;;;;11.24;87.46;93702.50;522563;28;1130;-61
2023/05/20 00:45:46;;;;;;;5.13;3.80;;;;;;;11.17;87.58;93703.22;521983;28;797;-61
2023/05/20 00:46:01;;;;;;;7.03;4.43;;;;;;;11.13;87.80;93700.78;521946;28;1064;-61
2023/05/20 00:46:17;;;;;;;6.57;4.57;;;;;;;11.06;87.88;93703.53;521982;28;902;-61
2023/05/20 00:46:32;;;;;;;5.57;4.32;;;;;;;11.02;88.09;93703.84;522036;28;803;-61
2023/05/20 00:46:48;;;;;;;5.70;4.13;;;;;;;10.99;88.40;93696.69;522125;28;806;-61
2023/05/20 00:47:04;;;;;;;6.38;4.55;;;;;;;10.99;88.62;93704.22;521304;28;1538;-62
2023/05/20 00:47:23;;;;;;;5.53;4.20;;;;;;;10.95;88.66;93709.38;520348;28;857;-61
2023/05/20 00:47:39;;;;;;;4.95;4.05;;;;;;;10.77;88.73;93694.53;521149;28;822;-61
2023/05/20 00:47:58;;;;;;;6.53;4.65;;;;;;;10.79;89.18;93707.78;522077;28;818;-61
2023/05/20 00:48:13;;;;;;;6.97;4.60;;;;;;;10.72;89.62;93709.22;519826;28;877;-61
2023/05/20 00:48:32;;;;;;;6.00;4.40;;;;;;;10.66;89.88;93703.88;520015;28;993;-61
2023/05/20 00:48:47;;;;;;;6.95;4.50;;;;;;;10.62;90.18;93711.75;521708;28;1138;-61
2023/05/20 00:49:03;;;;;;;7.18;4.22;;;;;;;10.63;90.45;93701.47;519805;28;845;-61
2023/05/20 00:49:19;;;;;;;7.37;4.60;;;;;;;10.66;90.46;93701.09;519861;28;955;-61
2023/05/20 00:49:35;;;;;;;7.53;5.05;;;;;;;10.73;90.47;93699.66;519987;28;812;-61
2023/05/20 00:49:50;;;;;;;7.43;4.68;;;;;;;10.78;90.46;93701.53;518050;28;774;-61
2023/05/20 00:50:06;;;;;;;8.10;5.00;;;;;;;10.71;90.24;93679.41;515076;28;1059;-61
2023/05/20 00:50:22;;;;;;;7.45;4.78;;;;;;;10.86;90.10;93698.81;513960;28;938;-61
2023/05/20 00:50:38;;;;;;;6.88;4.35;;;;;;;10.82;89.95;93687.38;513985;28;831;-62
2023/05/20 00:50:53;;;;;;;6.45;4.05;;;;;;;10.87;89.82;93705.81;515075;28;869;-60
2023/05/20 00:51:13;;;;;;;4.67;3.40;;;;;;;10.80;89.62;93701.75;518483;28;800;-61
2023/05/20 00:51:28;;;;;;;6.07;4.07;;;;;;;10.68;89.69;93700.53;515949;28;1968;-61
2023/05/20 00:51:43;;;;;;;5.87;4.00;;;;;;;10.63;89.96;93695.94;517022;28;1432;-61
2023/05/20 00:51:59;;;;;;;5.43;4.30;;;;;;;10.61;90.21;93706.78;518768;28;852;-61
2023/05/20 00:52:14;;;;;;;6.40;4.38;;;;;;;10.54;90.47;93688.16;519838;28;881;-61
2023/05/20 00:52:30;;;;;;;6.53;4.37;;;;;;;10.61;90.44;93690.22;517918;28;925;-61
2023/05/20 00:52:47;;;;;;;6.55;4.47;;;;;;;10.69;90.46;93699.28;517990;28;1153;-61
2023/05/20 00:53:02;;;;;;;6.35;4.18;;;;;;;10.76;90.26;93698.59;518635;28;853;-62
2023/05/20 00:53:17;;;;;;;8.50;4.40;;;;;;;10.81;90.10;93696.94;517827;28;1815;-61
2023/05/20 00:53:35;;;;;;;8.80;4.73;;;;;;;10.85;89.85;93698.06;517953;28;783;-61
2023/05/20 00:53:50;;;;;;;8.68;4.47;;;;;;;10.83;89.78;93700.63;517542;28;1729;-60
2023/05/20 00:54:05;;;;;;;8.27;4.40;;;;;;;10.80;89.73;93698.97;519098;28;1000;-60
2023/05/20 00:54:21;;;;;;;5.90;4.20;;;;;;;10.81;89.71;93700.44;519988;28;781;-62
2023/05/20 00:54:37;;;;;;;5.93;4.13;;;;;;;10.83;89.73;93700.63;519811;28;1080;-61
2023/05/20 00:54:52;;;;;;;7.60;4.10;;;;;;;10.83;89.71;93703.41;519899;28;1127;-61
2023/05/20 00:55:08;;;;;;;9.80;4.20;;;;;;;10.87;89.75;93709.31;520419;28;1011;-60
2023/05/20 00:55:24;;;;;;;7.75;3.88;;;;;;;10.76;89.75;93697.84;521916;28;931;-61
2023/05/20 00:55:39;;;;;;;6.15;3.83;;;;;;;10.63;89.91;93702.19;522590;28;935;-61
2023/05/20 00:55:55;;;;;;;6.60;4.27;;;;;;;10.54;90.08;93701.94;523300;28;1872;-60
2023/05/20 00:56:10;;;;;;;7.50;4.53;;;;;;;10.49;90.24;93709.09;523296;28;860;-60
2023/05/20 00:56:26;;;;;;;7.00;4.35;;;;;;;10.49;90.31;93709.09;522150;28;1214;-61
2023/05/20 00:56:41;;;;;;;7.13;4.65;;;;;;;10.51;90.62;93698.25;519972;28;1360;-61
2023/05/20 00:56:58;;;;;;;7.40;4.93;;;;;;;10.50;90.51;93696.03;519956;28;1329;-61
2023/05/20 00:57:14;;;;;;;6.35;4.38;;;;;;;10.57;90.47;93703.59;519875;28;1457;-61
2023/05/20 00:57:29;;;;;;;5.93;3.88;;;;;;;10.57;90.33;93709.13;520039;28;939;-60
2023/05/20 00:57:45;;;;;;;5.87;3.90;;;;;;;10.58;90.10;93700.31;521243;28;1284;-60
2023/05/20 00:58:00;;;;;;;6.28;4.40;;;;;;;10.63;90.14;93706.97;521567;28;1383;-61
2023/05/20 00:58:16;;;;;;;6.63;4.47;;;;;;;10.64;89.83;93702.91;521320;28;1153;-61
2023/05/20 00:58:31;;;;;;;5.93;4.22;;;;;;;10.65;89.80;93704.41;521467;28;1119;-60
2023/05/20 00:58:47;;;;;;;5.03;4.03;;;;;;;10.64;89.65;93702.91;524211;28;828;-60
2023/05/20 00:59:03;;;;;;;5.85;4.38;;;;;;;10.72;89.56;93705.75;521347;28;895;-61
2023/05/20 00:59:18;;;;;;;6.60;4.63;;;;;;;10.75;89.47;93701.88;519707;28;1411;-60
2023/05/20 00:59:35;;;;;;;7.55;4.40;;;;;;;10.76;89.23;93709.63;517871;28;923;-60
2023/05/20 00:59:50;;;;;;;8.15;4.20;;;;;;;10.74;89.10;93706.69;517649;28;1456;-61
2023/05/20 01:00:07;;;;;;;5.63;3.73;;;;;;;10.59;89.19;93712.84;516651;28;1613;-61
2023/05/20 01:00:22;;;;;;;5.75;3.83;;;;;;;10.46;89.33;93704.66;517763;28;1251;-61
2023/05/20 01:00:38;;;;;;;10.80;3.85;;;;;;;10.40;89.45;93706.81;517844;28;1564;-60
2023/05/20 01:00:54;;;;;;;9.77;3.73;;;;;;;10.35;89.70;93712.50;518697;28;765;-61
2023/05/20 01:01:09;;;;;;;5.38;3.95;;;;;;;10.36;89.98;93709.19;519826;28;852;-61
2023/05/20 01:01:25;;;;;;;7.38;4.47;;;;;;;10.40;89.97;93709.56;520673;28;926;-62
2023/05/20 01:01:40;;;;;;;7.43;4.60;;;;;;;10.39;90.11;93694.31;522648;28;2385;-61
2023/05/20 01:01:56;;;;;;;6.10;4.10;;;;;;;10.46;89.73;93703.94;519130;28;1481;-61
2023/05/20 01:02:11;;;;;;;5.80;4.10;;;;;;;10.33;89.75;93690.22;518301;28;864;-61
2023/05/20 01:02:27;;;;;;;5.00;4.07;;;;;;;10.47;89.82;93708.91;517989;28;824;-61
2023/05/20 01:02:43;;;;;;;5.53;4.07;;;;;;;10.48;89.58;93704.84;517722;28;1082;-62
2023/05/20 01:02:59;;;;;;;7.10;4.40;;;;;;;10.54;89.58;93704.72;516623;28;869;-61
2023/05/20 01:03:15;;;;;;;7.10;4.03;;;;;;;10.57;89.40;93701.59;517822;28;1142;-61
2023/05/20 01:03:31;;;;;;;6.63;4.00;;;;;;;10.61;89.32;93704.03;517930;28;1088;-61
2023/05/20 01:03:47;;;;;;;6.40;4.23;;;;;;;10.65;88.89;93710.66;518165;28;785;-61
2023/05/20 01:04:03;;;;;;;5.47;3.97;;;;;;;10.62;88.77;93699.97;521723;28;815;-61
2023/05/20 01:04:18;;;;;;;6.00;4.03;;;;;;;10.73;88.43;93704.44;522732;28;1716;-61
2023/05/20 01:04:33;;;;;;;6.85;4.47;;;;;;;10.72;88.11;93698.19;519888;28;910;-61
2023/05/20 01:04:49;;;;;;;5.73;4.30;;;;;;;10.78;87.90;93709.09;521651;28;1079;-61
2023/05/20 01:05:05;;;;;;;5.67;3.83;;;;;;;10.81;87.74;93710.75;521851;28;897;-60
2023/05/20 01:05:20;;;;;;;7.40;3.88;;;;;;;10.56;87.70;93669.00;522023;28;881;-61
2023/05/20 01:05:36;;;;;;;6.57;4.07;;;;;;;10.84;87.48;93707.66;521996;28;1027;-61
2023/05/20 01:05:51;;;;;;;5.53;3.47;;;;;;;10.84;87.21;93707.66;521618;28;1407;-61
2023/05/20 01:06:06;;;;;;;4.90;3.08;;;;;;;10.83;87.39;93713.72;521302;28;935;-61
2023/05/20 01:06:22;;;;;;;4.63;3.20;;;;;;;10.75;87.65;93705.38;519952;28;817;-60
2023/05/20 01:06:37;;;;;;;4.60;3.27;;;;;;;10.74;87.76;93705.94;519958;28;1000;-61
2023/05/20 01:06:54;;;;;;;6.25;3.72;;;;;;;10.68;88.05;93708.13;518419;28;1567;-60
2023/05/20 01:07:09;;;;;;;6.95;4.50;;;;;;;10.59;88.48;93710.06;520243;28;888;-61
2023/05/20 01:07:25;;;;;;;8.60;4.97;;;;;;;10.52;88.84;93708.03;519899;28;920;-60
2023/05/20 01:07:41;;;;;;;7.53;4.50;;;;;;;10.51;88.98;93708.53;520522;28;1403;-61
2023/05/20 01:07:56;;;;;;;5.87;4.17;;;;;;;10.51;89.33;93705.78;521942;28;896;-61
2023/05/20 01:08:12;;;;;;;5.65;4.03;;;;;;;10.52;89.43;93696.97;521875;28;1210;-61
2023/05/20 01:08:27;;;;;;;5.47;3.90;;;;;;;10.40;89.31;93681.97;521089;28;1632;-60
2023/05/20 01:08:43;;;;;;;9.25;4.30;;;;;;;10.56;89.52;93704.91;521624;28;1178;-60
2023/05/20 01:08:58;;;;;;;9.60;4.27;;;;;;;10.58;89.42;93699.56;520715;28;773;-61
2023/05/20 01:09:14;;;;;;;5.85;3.63;;;;;;;10.59;89.36;93701.03;519473;28;1099;-61
2023/05/20 01:09:30;;;;;;;5.80;3.77;;;;;;;10.63;89.17;93701.47;517928;28;884;-60
2023/05/20 01:09:46;;;;;;;5.50;3.75;;;;;;;10.66;88.98;93705.88;515885;28;888;-61
2023/05/20 01:10:01;;;;;;;5.40;3.43;;;;;;;10.68;88.75;93700.53;515548;28;1006;-61
2023/05/20 01:10:17;;;;;;;4.97;3.22;;;;;;;10.70;88.41;93697.25;515814;28;861;-60
2023/05/20 01:10:33;;;;;;;5.27;3.50;;;;;;;10.72;88.20;93705.75;515914;28;828;-61
2023/05/20 01:10:51;;;;;;;5.75;3.85;;;;;;;10.68;87.92;93706.06;514476;28;956;-61
2023/05/20 01:11:22;;;;;;;5.10;3.50;;;;;;;10.51;87.92;93703.03;513803;28;926;-61
2023/05/20 01:11:43;;;;;;;4.13;3.58;;;;;;;10.47;88.16;93700.63;517014;28;1174;-60
2023/05/20 01:12:20;;;;;;;4.53;3.63;;;;;;;10.48;88.34;93698.59;516179;28;919;-60
2023/05/20 01:12:42;;;;;;;6.05;3.67;;;;;;;10.53;88.25;93703.97;513884;28;968;-60
2023/05/20 01:13:01;;;;;;;6.15;4.32;;;;;;;10.53;88.33;93698.44;516790;28;910;-60
2023/05/20 01:13:20;;;;;;;5.05;4.50;;;;;;;10.52;88.25;93702.50;517771;28;1682;-60
2023/05/20 01:13:49;;;;;;;5.72;4.40;;;;;;;10.46;87.93;93696.38;515887;28;932;-61
2023/05/20 01:14:07;;;;;;;4.75;4.22;;;;;;;10.44;88.26;93703.69;516951;28;828;-60
2023/05/20 01:14:24;;;;;;;4.82;3.72;;;;;;;10.43;88.36;93694.69;516797;28;1455;-60
2023/05/20 01:15:04;;;;;;;5.95;4.15;;;;;;;10.50;88.36;93699.50;517451;28;1128;-60
2023/05/20 01:15:21;;;;;;;6.90;4.78;;;;;;;10.59;88.17;93701.78;515698;28;1741;-60
2023/05/20 01:15:37;;;;;;;5.95;4.10;;;;;;;10.60;87.87;93697.75;517221;28;1595;-60
2023/05/20 01:15:53;;;;;;;6.90;3.78;;;;;;;10.55;87.73;93701.41;516091;28;889;-60
2023/05/20 01:16:10;;;;;;;6.22;4.10;;;;;;;10.42;87.64;93693.22;517852;28;890;-60
2023/05/20 01:16:26;;;;;;;5.05;3.75;;;;;;;10.18;88.22;93695.63;517879;28;1213;-60
2023/05/20 01:16:42;;;;;;;4.28;3.45;;;;;;;10.15;88.67;93702.97;519973;28;964;-60
2023/05/20 01:16:59;;;;;;;5.90;3.83;;;;;;;10.16;88.82;93704.41;517814;28;1250;-61
2023/05/20 01:17:19;;;;;;;6.20;3.88;;;;;;;10.22;88.88;93696.03;517791;28;813;-61
2023/05/20 01:17:50;;;;;;;6.43;3.90;;;;;;;10.33;88.75;93701.97;519444;28;1193;-61
2023/05/20 01:18:07;;;;;;;5.15;3.92;;;;;;;10.37;88.53;93691.31;521187;28;883;-61